LGZA/ZTH METAR and TAF weather

Enter ICAO airport designator
Station Type Date Time Source
LGZA METAR 2021/08/02 01:50 UTC NOAA

LGZA 020150Z 00000KT CAVOK 25/19 Q1011


Station Type Date Time Source
LGZA Decoded METAR 2021/08/02 01:50 UTC NOAA

Zakinthos Airport , Greece (LGZA) 37-45N 020-53E
Aug 01, 2021 - 09:50 PM EDT / 2021.08.02 0150 UTC
Wind: Calm:0
Visibility: greater than 7 mile(s):0
Temperature: 77 F (25 C)
Dew Point: 66 F (19 C)
Relative Humidity: 69%
Pressure (altimeter): 29.85 in. Hg (1011 hPa)
ob: LGZA 020150Z 00000KT CAVOK 25/19 Q1011
cycle: 2

Station Type Date Time Source
LGZA TAF 2011/11/25 15:06 UTC NOAA

TAF TAF LGZA 251400Z 2515/2603 02012KT 9999 FEW025 SCT035 BKN080 PROB30
TEMPO 2518/2603 8000 RA PROB30 2522/2603 5000 BR SCT010

Example: see airport list